createdAt,value
2022-10-11T00:01:59.278Z,4.43
2022-10-11T00:04:26.424Z,4.65
2022-10-11T00:06:53.616Z,4.47
2022-10-11T00:09:20.767Z,4.60
2022-10-11T00:11:47.905Z,4.40
2022-10-11T00:14:15.059Z,4.20
2022-10-11T00:16:44.351Z,4.30
2022-10-11T00:19:11.710Z,4.80
2022-10-11T00:21:39.265Z,4.57
2022-10-11T00:24:06.632Z,4.78
2022-10-11T00:26:33.935Z,4.28
2022-10-11T00:29:01.071Z,4.47
2022-10-11T00:31:30.923Z,4.60
2022-10-11T00:34:01.903Z,4.75
2022-10-11T00:36:29.110Z,4.82
2022-10-11T00:38:56.308Z,4.40
2022-10-11T00:41:23.453Z,4.38
2022-10-11T00:44:15.290Z,4.50
2022-10-11T00:46:53.645Z,4.72
2022-10-11T00:49:44.425Z,4.90
2022-10-11T00:52:33.250Z,4.47
2022-10-11T00:55:05.827Z,4.40
2022-10-11T00:57:36.243Z,4.60
2022-10-11T01:00:06.498Z,4.95
2022-10-11T01:02:33.657Z,4.60
2022-10-11T01:05:18.304Z,4.53
2022-10-11T01:07:48.168Z,4.50
2022-10-11T01:10:15.421Z,4.82
2022-10-11T01:13:05.910Z,5.03
2022-10-11T01:15:42.377Z,5.00
2022-10-11T01:18:30.660Z,5.10
2022-10-11T01:21:22.507Z,5.18
2022-10-11T01:24:19.011Z,5.03
2022-10-11T01:27:05.572Z,4.60
2022-10-11T01:29:45.004Z,4.97
2022-10-11T01:32:38.152Z,5.13
2022-10-11T01:35:28.836Z,4.80
2022-10-11T01:38:16.969Z,4.72
2022-10-11T01:40:50.207Z,5.07
2022-10-11T01:43:17.345Z,4.88
2022-10-11T01:45:44.638Z,4.85
2022-10-11T01:48:12.940Z,4.65
2022-10-11T01:50:40.087Z,4.68
2022-10-11T01:53:16.250Z,4.97
2022-10-11T01:55:51.249Z,5.13
2022-10-11T01:58:48.538Z,5.13
2022-10-11T02:01:32.264Z,5.32
2022-10-11T02:04:11.111Z,5.97
2022-10-11T02:06:51.178Z,5.68
2022-10-11T02:09:31.917Z,5.57
2022-10-11T02:12:02.405Z,5.80
2022-10-11T02:14:31.798Z,6.90
2022-10-11T02:17:04.036Z,6.25
2022-10-11T02:19:35.487Z,5.95
2022-10-11T02:22:05.981Z,6.18
2022-10-11T02:24:34.744Z,5.90
2022-10-11T02:27:02.773Z,6.43
2022-10-11T02:29:31.073Z,6.03
2022-10-11T02:31:58.787Z,6.10
2022-10-11T02:34:31.436Z,6.38
2022-10-11T02:37:21.599Z,6.53
2022-10-11T02:40:10.616Z,5.82
2022-10-11T02:42:44.351Z,5.70
2022-10-11T02:45:26.575Z,6.15
2022-10-11T02:47:53.723Z,5.97
2022-10-11T02:50:22.015Z,6.47
2022-10-11T02:52:49.175Z,6.03
2022-10-11T02:55:16.350Z,6.90
2022-10-11T02:57:43.552Z,7.45
2022-10-11T03:00:11.500Z,7.10
2022-10-11T03:02:38.644Z,7.30
2022-10-11T03:05:05.954Z,6.13
2022-10-11T03:07:33.357Z,6.30
2022-10-11T03:10:00.498Z,6.70
2022-10-11T03:12:27.662Z,6.70
2022-10-11T03:14:54.796Z,6.80
2022-10-11T03:17:36.269Z,6.18
2022-10-11T03:20:05.476Z,5.72
2022-10-11T03:22:32.620Z,5.88
2022-10-11T03:25:03.702Z,5.80
2022-10-11T03:27:32.849Z,6.20
2022-10-11T03:30:00.133Z,6.18
2022-10-11T03:32:27.387Z,6.47
2022-10-11T03:34:54.553Z,6.82
2022-10-11T03:37:21.711Z,6.00
2022-10-11T03:39:48.896Z,5.75
2022-10-11T03:42:16.766Z,6.05
2022-10-11T03:44:43.910Z,6.57
2022-10-11T03:47:11.129Z,5.90
2022-10-11T03:49:42.714Z,5.68
2022-10-11T03:52:10.919Z,5.60
2022-10-11T03:54:38.034Z,5.38
2022-10-11T03:57:05.174Z,5.30
2022-10-11T03:59:32.304Z,5.88
2022-10-11T04:01:59.514Z,5.93
2022-10-11T04:04:26.722Z,5.15
2022-10-11T04:06:53.845Z,5.40
2022-10-11T04:09:21.031Z,5.53
2022-10-11T04:11:48.178Z,5.40
2022-10-11T04:14:15.319Z,5.05
2022-10-11T04:16:42.566Z,5.22
2022-10-11T04:19:09.769Z,4.70
2022-10-11T04:21:36.894Z,4.78
2022-10-11T04:24:04.352Z,4.55
2022-10-11T04:26:31.581Z,5.30
2022-10-11T04:28:58.880Z,4.47
2022-10-11T04:31:26.305Z,4.82
2022-10-11T04:33:53.470Z,4.90
2022-10-11T04:36:20.640Z,4.78
2022-10-11T04:38:47.812Z,4.97
2022-10-11T04:41:15.339Z,5.70
2022-10-11T04:43:42.530Z,4.47
2022-10-11T04:46:10.320Z,4.50
2022-10-11T04:48:38.248Z,5.18
2022-10-11T04:51:05.595Z,4.97
2022-10-11T04:53:32.739Z,4.80
2022-10-11T04:56:05.470Z,4.72
2022-10-11T04:58:33.389Z,4.75
2022-10-11T05:01:00.770Z,4.53
2022-10-11T05:03:28.192Z,4.65
2022-10-11T05:05:55.401Z,5.10
2022-10-11T05:08:25.682Z,4.60
2022-10-11T05:11:06.591Z,4.75
2022-10-11T05:13:34.458Z,4.78
2022-10-11T05:16:04.026Z,4.28
2022-10-11T05:18:34.196Z,4.60
2022-10-11T05:21:09.560Z,4.13
2022-10-11T05:23:37.058Z,5.20
2022-10-11T05:26:04.706Z,4.60
2022-10-11T05:28:32.095Z,4.43
2022-10-11T05:30:59.351Z,4.47
2022-10-11T05:33:26.505Z,4.95
2022-10-11T05:35:53.685Z,4.97
2022-10-11T05:38:20.906Z,4.47
2022-10-11T05:40:48.138Z,5.05
2022-10-11T05:43:15.367Z,4.97
2022-10-11T05:45:42.839Z,5.10
2022-10-11T05:48:10.237Z,4.82
2022-10-11T05:50:37.831Z,5.22
2022-10-11T05:53:05.184Z,5.15
2022-10-11T05:55:39.197Z,4.75
2022-10-11T05:58:06.759Z,5.15
2022-10-11T06:00:36.933Z,5.20
2022-10-11T06:03:05.623Z,4.80
2022-10-11T06:05:34.651Z,4.75
2022-10-11T06:08:06.649Z,5.13
2022-10-11T06:10:34.441Z,5.07
2022-10-11T06:13:04.559Z,5.07
2022-10-11T06:15:32.154Z,5.25
2022-10-11T06:17:59.625Z,5.47
2022-10-11T06:20:27.074Z,4.88
2022-10-11T06:22:54.554Z,6.03
2022-10-11T06:25:21.945Z,5.55
2022-10-11T06:27:52.475Z,5.38
2022-10-11T06:30:19.946Z,5.43
2022-10-11T06:32:47.315Z,4.93
2022-10-11T06:35:14.881Z,5.07
2022-10-11T06:37:42.243Z,4.88
2022-10-11T06:40:11.969Z,5.40
2022-10-11T06:42:39.304Z,5.30
2022-10-11T06:45:07.385Z,5.00
2022-10-11T06:47:37.132Z,5.28
2022-10-11T06:50:06.164Z,6.13
2022-10-11T06:52:33.327Z,5.88
2022-10-11T06:55:00.491Z,5.57
2022-10-11T06:57:28.181Z,5.70
2022-10-11T06:59:55.392Z,5.70
2022-10-11T07:02:22.538Z,4.90
2022-10-11T07:04:49.686Z,5.35
2022-10-11T07:07:16.844Z,5.55
2022-10-11T07:09:44.010Z,5.13
2022-10-11T07:12:11.727Z,5.85
2022-10-11T07:14:39.203Z,5.35
2022-10-11T07:17:06.422Z,5.50
2022-10-11T07:19:33.645Z,5.00
2022-10-11T07:22:00.840Z,5.53
2022-10-11T07:24:28.087Z,6.00
2022-10-11T07:26:55.241Z,5.85
2022-10-11T07:29:22.400Z,5.85
2022-10-11T07:31:49.550Z,6.55
2022-10-11T07:34:18.174Z,6.32
2022-10-11T07:36:45.423Z,6.40
2022-10-11T07:39:12.660Z,6.57
2022-10-11T07:41:45.407Z,6.00
2022-10-11T07:44:13.650Z,6.18
2022-10-11T07:46:40.774Z,6.47
2022-10-11T07:49:08.106Z,6.07
2022-10-11T07:51:35.272Z,5.30
2022-10-11T07:54:07.000Z,5.43
2022-10-11T07:56:35.415Z,6.47
2022-10-11T07:59:06.263Z,6.90
2022-10-11T08:01:33.592Z,7.00
2022-10-11T08:04:00.843Z,7.00
2022-10-11T08:06:31.638Z,6.60
2022-10-11T08:08:59.867Z,6.63
2022-10-11T08:11:35.029Z,6.57
2022-10-11T08:14:03.559Z,6.30
2022-10-11T08:16:30.747Z,6.55
2022-10-11T08:18:57.916Z,6.43
2022-10-11T08:21:26.637Z,6.70
2022-10-11T08:23:53.848Z,6.55
2022-10-11T08:26:21.200Z,6.32
2022-10-11T08:28:48.405Z,6.25
2022-10-11T08:31:15.918Z,7.38
2022-10-11T08:33:43.176Z,6.97
2022-10-11T08:36:11.120Z,6.25
2022-10-11T08:38:39.056Z,6.32
2022-10-11T08:41:29.204Z,6.63
2022-10-11T08:44:21.415Z,7.00
2022-10-11T08:47:00.307Z,7.25
2022-10-11T08:49:30.014Z,7.53
2022-10-11T08:52:04.406Z,6.80
2022-10-11T08:54:44.451Z,7.18
2022-10-11T08:57:31.650Z,7.13
2022-10-11T09:00:08.759Z,7.18
2022-10-11T09:03:14.636Z,7.35
2022-10-11T09:05:49.147Z,6.80
2022-10-11T09:08:35.107Z,7.05
2022-10-11T09:11:47.610Z,7.53
2022-10-11T09:14:19.486Z,8.20
2022-10-11T09:17:02.059Z,7.72
2022-10-11T09:19:36.142Z,7.68
2022-10-11T09:22:23.946Z,7.05
2022-10-11T09:25:02.908Z,6.93
2022-10-11T09:28:01.364Z,7.63
2022-10-11T09:30:25.325Z,7.63
2022-10-11T09:33:15.965Z,8.07
2022-10-11T09:35:46.155Z,8.32
2022-10-11T09:38:36.719Z,8.77
2022-10-11T09:41:21.408Z,7.55
2022-10-11T09:43:49.805Z,8.43
2022-10-11T09:46:35.706Z,8.95
2022-10-11T09:49:04.245Z,8.27
2022-10-11T09:51:31.404Z,8.20
2022-10-11T09:54:03.162Z,7.10
2022-10-11T09:56:31.202Z,7.88
2022-10-11T09:59:27.214Z,8.07
2022-10-11T10:02:14.409Z,8.32
2022-10-11T10:04:54.731Z,7.60
2022-10-11T10:07:22.029Z,7.72
2022-10-11T10:09:49.778Z,7.57
2022-10-11T10:12:28.463Z,7.40
2022-10-11T10:15:08.279Z,7.10
2022-10-11T10:17:36.063Z,7.05
2022-10-11T10:20:05.599Z,7.00
2022-10-11T10:22:34.803Z,6.30
2022-10-11T10:25:05.847Z,7.10
2022-10-11T10:27:32.994Z,6.00
2022-10-11T10:30:02.962Z,6.80
2022-10-11T10:32:53.274Z,6.28
2022-10-11T10:35:29.495Z,6.30
2022-10-11T10:38:11.049Z,7.50
2022-10-11T10:40:52.886Z,6.28
2022-10-11T10:43:22.484Z,5.68
2022-10-11T10:45:55.520Z,6.22
2022-10-11T10:49:02.028Z,5.80
2022-10-11T10:51:28.744Z,5.90
2022-10-11T10:54:19.247Z,5.47
2022-10-11T10:56:55.807Z,5.50
2022-10-11T10:59:44.995Z,5.38
2022-10-11T11:02:41.073Z,5.55
2022-10-11T11:05:16.266Z,6.03
2022-10-11T11:07:52.129Z,5.82
2022-10-11T11:10:25.203Z,6.20
2022-10-11T11:13:13.612Z,6.00
2022-10-11T11:15:49.132Z,6.10
2022-10-11T11:19:16.627Z,6.05
2022-10-11T11:21:49.210Z,6.50
2022-10-11T11:24:27.061Z,6.43
2022-10-11T11:27:05.409Z,6.50
2022-10-11T11:29:44.804Z,6.30
2022-10-11T11:32:25.467Z,6.40
2022-10-11T11:35:28.850Z,5.95
2022-10-11T11:38:06.048Z,5.70
2022-10-11T11:40:39.323Z,5.43
2022-10-11T11:43:36.197Z,6.35
2022-10-11T11:46:09.475Z,5.80
2022-10-11T11:48:36.619Z,6.43
2022-10-11T11:51:34.529Z,5.90
2022-10-11T11:54:26.013Z,5.55
2022-10-11T11:57:13.739Z,5.70
2022-10-11T11:59:52.170Z,5.93
2022-10-11T12:02:43.427Z,5.60
2022-10-11T12:05:12.768Z,5.35
2022-10-11T12:07:52.340Z,6.60
2022-10-11T12:10:28.716Z,5.57
2022-10-11T12:13:27.230Z,5.90
2022-10-11T12:16:13.705Z,5.40
2022-10-11T12:18:52.383Z,5.30
2022-10-11T12:21:31.746Z,5.22
2022-10-11T12:24:19.123Z,5.00
2022-10-11T12:26:54.110Z,5.25
2022-10-11T12:29:28.225Z,4.50
2022-10-11T12:31:59.142Z,5.40
2022-10-11T12:34:42.853Z,4.70
2022-10-11T12:37:19.535Z,4.50
2022-10-11T12:39:59.794Z,4.57
2022-10-11T12:42:30.724Z,4.40
2022-10-11T12:45:13.249Z,4.47
2022-10-11T12:47:55.562Z,4.03
2022-10-11T12:50:42.568Z,4.82
2022-10-11T12:53:19.729Z,4.97
2022-10-11T12:55:57.445Z,4.75
2022-10-11T12:58:30.541Z,4.70
2022-10-11T13:00:57.899Z,5.40
2022-10-11T13:03:33.385Z,5.38
2022-10-11T13:06:09.375Z,5.25
2022-10-11T13:08:37.624Z,5.35
2022-10-11T13:11:05.999Z,5.20
2022-10-11T13:13:41.628Z,4.60
2022-10-11T13:16:13.430Z,5.20
2022-10-11T13:18:45.318Z,5.57
2022-10-11T13:21:25.651Z,5.20
2022-10-11T13:23:58.863Z,5.13
2022-10-11T13:26:26.948Z,5.38
2022-10-11T13:28:54.122Z,5.20
2022-10-11T13:31:21.704Z,4.88
2022-10-11T13:33:48.866Z,5.70
2022-10-11T13:36:17.704Z,5.88
2022-10-11T13:38:56.846Z,5.20
2022-10-11T13:41:26.221Z,4.68
2022-10-11T13:43:54.847Z,5.47
2022-10-11T13:46:26.844Z,4.85
2022-10-11T13:49:05.520Z,4.90
2022-10-11T13:51:35.129Z,5.75
2022-10-11T13:54:13.130Z,5.55
2022-10-11T13:56:48.293Z,5.70
2022-10-11T13:59:25.699Z,6.47
2022-10-11T14:01:58.787Z,6.40
2022-10-11T14:04:29.488Z,6.25
2022-10-11T14:07:02.270Z,6.20
2022-10-11T14:09:33.836Z,6.90
2022-10-11T14:12:40.792Z,6.53
2022-10-11T14:15:30.905Z,6.75
2022-10-11T14:17:58.428Z,7.55
2022-10-11T14:20:47.182Z,7.07
2022-10-11T14:23:14.570Z,7.28
2022-10-11T14:25:41.799Z,7.35
2022-10-11T14:28:11.884Z,8.52
2022-10-11T14:30:39.767Z,8.05
2022-10-11T14:33:07.034Z,7.72
2022-10-11T14:35:34.732Z,8.35
2022-10-11T14:38:01.948Z,7.05
2022-10-11T14:40:30.218Z,7.82
2022-10-11T14:42:57.480Z,7.55
2022-10-11T14:45:24.781Z,7.63
2022-10-11T14:47:52.013Z,7.30
2022-10-11T14:50:37.532Z,7.57
2022-10-11T14:53:05.700Z,6.40
2022-10-11T14:55:33.014Z,6.97
2022-10-11T14:58:00.145Z,7.38
2022-10-11T15:00:28.326Z,6.80
2022-10-11T15:02:55.521Z,7.05
2022-10-11T15:05:23.619Z,7.63
2022-10-11T15:07:50.770Z,7.20
2022-10-11T15:10:26.856Z,7.32
2022-10-11T15:12:54.725Z,6.78
2022-10-11T15:15:24.175Z,7.25
2022-10-11T15:17:53.381Z,6.95
2022-10-11T15:20:42.874Z,6.30
2022-10-11T15:23:10.237Z,6.72
2022-10-11T15:25:37.916Z,6.97
2022-10-11T15:28:05.547Z,6.90
2022-10-11T15:30:38.502Z,6.80
2022-10-11T15:33:08.411Z,6.80
2022-10-11T15:35:35.611Z,6.50
2022-10-11T15:38:03.037Z,6.68
2022-10-11T15:40:36.780Z,7.07
2022-10-11T15:43:03.980Z,6.47
2022-10-11T15:45:31.259Z,7.53
2022-10-11T15:47:58.475Z,7.10
2022-10-11T15:50:34.435Z,6.70
2022-10-11T15:53:14.408Z,7.32
2022-10-11T15:55:43.642Z,8.15
2022-10-11T15:58:16.458Z,7.85
2022-10-11T16:00:44.568Z,7.00
2022-10-11T16:03:12.915Z,7.13
2022-10-11T16:05:40.135Z,6.10
2022-10-11T16:08:07.472Z,6.47
2022-10-11T16:10:34.684Z,6.43
2022-10-11T16:13:02.086Z,6.43
2022-10-11T16:15:29.362Z,6.70
2022-10-11T16:17:56.515Z,6.15
2022-10-11T16:20:25.651Z,6.22
2022-10-11T16:22:53.993Z,6.32
2022-10-11T16:25:21.339Z,6.43
2022-10-11T16:27:48.510Z,7.13
2022-10-11T16:30:16.327Z,7.88
2022-10-11T16:32:44.377Z,6.65
2022-10-11T16:35:12.427Z,6.65
2022-10-11T16:37:39.753Z,7.63
2022-10-11T16:40:08.009Z,6.65
2022-10-11T16:42:35.222Z,6.70
2022-10-11T16:45:02.374Z,7.18
2022-10-11T16:47:29.530Z,6.75
2022-10-11T16:49:56.796Z,7.72
2022-10-11T16:52:24.048Z,7.63
2022-10-11T16:54:51.327Z,7.28
2022-10-11T16:57:19.743Z,7.88
2022-10-11T16:59:47.055Z,7.80
2022-10-11T17:02:16.312Z,7.53
2022-10-11T17:04:43.893Z,7.32
2022-10-11T17:07:12.928Z,6.90
2022-10-11T17:09:44.263Z,7.78
2022-10-11T17:12:15.875Z,7.45
2022-10-11T17:14:43.302Z,7.70
2022-10-11T17:17:10.579Z,8.80
2022-10-11T17:19:44.845Z,8.70
2022-10-11T17:22:16.105Z,7.93
2022-10-11T17:24:43.383Z,8.48
2022-10-11T17:27:10.732Z,9.48
2022-10-11T17:29:38.168Z,8.57
2022-10-11T17:32:05.415Z,8.50
2022-10-11T17:34:32.671Z,9.00
2022-10-11T17:36:59.814Z,8.68
2022-10-11T17:39:26.948Z,10.20
2022-10-11T17:41:54.231Z,9.25
2022-10-11T17:44:21.639Z,9.25
2022-10-11T17:46:48.832Z,9.10
2022-10-11T17:49:16.156Z,8.77
2022-10-11T17:51:43.737Z,8.63
2022-10-11T17:54:12.729Z,10.27
2022-10-11T17:56:40.955Z,9.50
2022-10-11T17:59:08.741Z,9.57
2022-10-11T18:01:36.094Z,9.65
2022-10-11T18:04:04.296Z,9.73
2022-10-11T18:06:32.935Z,10.45
2022-10-11T18:09:00.803Z,11.25
2022-10-11T18:11:28.189Z,11.60
2022-10-11T18:13:55.661Z,12.18
2022-10-11T18:16:24.374Z,13.07
2022-10-11T18:18:51.596Z,12.73
2022-10-11T18:21:19.618Z,12.80
2022-10-11T18:23:46.983Z,12.52
2022-10-11T18:26:25.402Z,13.13
2022-10-11T18:28:55.761Z,12.93
2022-10-11T18:31:25.180Z,13.80
2022-10-11T18:33:52.881Z,13.57
2022-10-11T18:36:21.934Z,14.32
2022-10-11T18:38:51.815Z,12.65
2022-10-11T18:41:20.166Z,12.65
2022-10-11T18:43:51.406Z,13.45
2022-10-11T18:46:18.684Z,13.43
2022-10-11T18:48:47.072Z,14.50
2022-10-11T18:51:22.169Z,13.55
2022-10-11T18:53:49.481Z,14.38
2022-10-11T18:56:17.366Z,14.65
2022-10-11T18:58:44.815Z,13.40
2022-10-11T19:01:17.257Z,13.32
2022-10-11T19:03:49.121Z,13.57
2022-10-11T19:06:17.668Z,14.75
2022-10-11T19:08:48.782Z,13.75
2022-10-11T19:11:16.160Z,15.15
2022-10-11T19:13:43.545Z,14.88
2022-10-11T19:16:16.926Z,14.85
2022-10-11T19:18:44.620Z,14.73
2022-10-11T19:21:12.601Z,13.65
2022-10-11T19:23:41.813Z,13.25
2022-10-11T19:26:20.254Z,14.05
2022-10-11T19:28:47.932Z,13.10
2022-10-11T19:31:16.994Z,13.30
2022-10-11T19:33:44.917Z,13.90
2022-10-11T19:36:13.715Z,13.80
2022-10-11T19:38:44.040Z,14.65
2022-10-11T19:41:11.663Z,14.60
2022-10-11T19:43:38.845Z,15.13
2022-10-11T19:46:08.270Z,14.57
2022-10-11T19:48:38.959Z,16.10
2022-10-11T19:51:13.939Z,15.05
2022-10-11T19:53:42.605Z,15.52
2022-10-11T19:56:17.311Z,15.35
2022-10-11T19:58:44.612Z,15.60
2022-10-11T20:01:16.206Z,15.63
2022-10-11T20:03:44.098Z,15.90
2022-10-11T20:06:12.592Z,15.90
2022-10-11T20:08:39.722Z,14.63
2022-10-11T20:11:10.317Z,14.32
2022-10-11T20:13:37.614Z,14.15
2022-10-11T20:16:10.497Z,13.82
2022-10-11T20:18:37.825Z,14.23
2022-10-11T20:21:13.063Z,14.40
2022-10-11T20:26:21.762Z,14.43
2022-10-11T20:28:54.987Z,15.65
2022-10-11T20:31:25.811Z,16.00
2022-10-11T20:33:55.533Z,16.25
2022-10-11T20:36:23.450Z,16.77
2022-10-11T20:38:50.765Z,17.48
2022-10-11T20:41:20.208Z,15.23
2022-10-11T20:43:48.426Z,17.10
2022-10-11T20:46:20.173Z,16.52
2022-10-11T20:48:52.319Z,16.30
2022-10-11T20:51:19.799Z,17.48
2022-10-11T20:53:47.100Z,16.33
2022-10-11T20:56:15.134Z,16.92
2022-10-11T20:58:43.027Z,17.17
2022-10-11T21:01:17.973Z,16.42
2022-10-11T21:03:45.157Z,15.05
2022-10-11T21:06:12.407Z,16.83
2022-10-11T21:08:40.016Z,16.98
2022-10-11T21:11:07.798Z,16.70
2022-10-11T21:13:35.051Z,16.02
2022-10-11T21:16:11.144Z,15.68
2022-10-11T21:18:38.703Z,14.93
2022-10-11T21:21:13.197Z,15.63
2022-10-11T21:23:40.794Z,16.30
2022-10-11T21:26:09.733Z,15.38
2022-10-11T21:28:37.318Z,16.30
2022-10-11T21:31:22.973Z,16.05
2022-10-11T21:33:50.465Z,15.48
2022-10-11T21:36:19.360Z,14.75
2022-10-11T21:38:46.634Z,15.07
2022-10-11T21:41:21.404Z,16.77
2022-10-11T21:43:48.689Z,16.25
2022-10-11T21:46:47.665Z,16.80
2022-10-11T21:49:15.196Z,17.42
2022-10-11T21:51:42.555Z,17.15
2022-10-11T21:54:09.755Z,16.80
2022-10-11T21:56:36.964Z,16.63
2022-10-11T21:59:06.575Z,17.58
2022-10-11T22:01:36.814Z,16.60
2022-10-11T22:04:04.852Z,15.88
2022-10-11T22:06:31.994Z,15.25
2022-10-11T22:09:00.767Z,16.02
2022-10-11T22:11:27.896Z,15.98
2022-10-11T22:13:55.039Z,16.30
2022-10-11T22:16:22.195Z,17.30
2022-10-11T22:18:49.363Z,16.75
2022-10-11T22:21:18.182Z,16.58
2022-10-11T22:23:46.572Z,16.83
2022-10-11T22:26:15.607Z,18.42
2022-10-11T22:28:42.830Z,18.42
2022-10-11T22:31:10.078Z,18.50
2022-10-11T22:33:37.458Z,19.13
2022-10-11T22:36:10.052Z,17.52
2022-10-11T22:38:40.795Z,18.02
2022-10-11T22:41:07.979Z,17.60
2022-10-11T22:43:35.159Z,17.35
2022-10-11T22:46:02.353Z,18.60
2022-10-11T22:48:29.674Z,18.92
2022-10-11T22:50:56.814Z,17.98
2022-10-11T22:53:23.936Z,17.27
2022-10-11T22:55:51.061Z,18.20
2022-10-11T22:58:18.230Z,18.00
2022-10-11T23:00:45.411Z,17.48
2022-10-11T23:03:13.791Z,18.63
2022-10-11T23:05:40.945Z,18.00
2022-10-11T23:08:09.483Z,17.75
2022-10-11T23:10:40.035Z,17.98
2022-10-11T23:13:07.263Z,19.50
2022-10-11T23:15:34.400Z,18.13
2022-10-11T23:18:01.515Z,18.63
2022-10-11T23:20:28.645Z,18.98
2022-10-11T23:22:55.769Z,20.73
2022-10-11T23:25:22.912Z,18.80
2022-10-11T23:27:50.052Z,18.77
2022-10-11T23:30:17.291Z,19.30
2022-10-11T23:32:44.410Z,18.85
2022-10-11T23:35:11.579Z,19.13
2022-10-11T23:37:39.100Z,19.80
2022-10-11T23:40:07.860Z,19.27
2022-10-11T23:42:34.985Z,19.48
2022-10-11T23:45:02.133Z,19.48
2022-10-11T23:47:29.342Z,18.95
2022-10-11T23:49:56.491Z,18.83
2022-10-11T23:52:23.637Z,19.35
2022-10-11T23:54:50.778Z,18.40
2022-10-11T23:57:17.985Z,19.38
2022-10-11T23:59:45.137Z,20.58
